Stavros S. Niarchos — MZIU7 — position and weather

sailwx.info

Track history (hours):
 
Tides and Currents Weather Stations Pressure Air Temp Water Temp Dewpoint Dewpoint Depression Visibility Wind Speed Wind Dir Waves Ship Positions

Stavros S. Niarchos

See http://www.classic-sailing.co.uk/ for bookings.

Ship's website: http://www.tallships.org/

Last reported at 2017-Apr-07 11:25 UTC. Time now 2017-Apr-29 03:37 UTC.
Position N 55°56' W 004°55'.
Warning: this ship's position is 21 days out of date.

Length 59.4 m; beam 9.9 m; draft 4.5 m.

Type: Sailing vessel. MMSI: 232007330.

Date/timePositionNaut miles runAvg speedWind from/ knotsBaromVisibWave heightAir tempDewpointWater temp
2017-Apr-07 11:25N 55°56' W 004°55'14 1.5
2017-Apr-07 02:00N 55°42' W 005°00'6 0.5 270 / 101027.8 5.4 8.7 6.1
2017-Apr-06 14:11N 55°37' W 005°04'3 4.4
2017-Apr-06 13:30N 55°34' W 005°04'2 0.3
2017-Apr-06 06:26N 55°32' W 005°06'0 1.0
2017-Apr-06 06:00N 55°32' W 005°06'3 2.7
2017-Apr-06 04:59N 55°31' W 005°01'3 2.8
2017-Apr-06 04:02N 55°34' W 005°01'0 4.1
2017-Apr-06 03:58N 55°34' W 005°01'2 4.0
2017-Apr-06 03:30N 55°32' W 005°01'2 3.7
2017-Apr-06 03:00N 55°30' W 005°01'1 3.0
2017-Apr-06 02:30N 55°29' W 004°59'1 2.2
2017-Apr-06 02:00N 55°30' W 004°57'5 3.2
2017-Apr-06 00:35N 55°34' W 005°00'0 4.0
2017-Apr-06 00:31N 55°34' W 005°00'2 3.9
2017-Apr-06 00:00N 55°32' W 005°00'2 3.8
2017-Apr-05 23:30N 55°30' W 004°60'2 3.5
2017-Apr-05 23:01N 55°28' W 005°00'2 3.8
2017-Apr-05 22:26N 55°26' W 005°00'  
2017-Mar-31 02:00N 55°54' W 004°54'   100 / 51002.8 5.4 11.2 9.6 8.7
Track history (hours):
 
Tides and Currents Weather Stations Pressure Air Temp Water Temp Dewpoint Dewpoint Depression Visibility Wind Speed Wind Dir Waves Ship Positions

Stavros S. Niarchos

See http://www.classic-sailing.co.uk/ for bookings.

Ship's website: http://www.tallships.org/

Last reported at 2017-Apr-07 11:25 UTC. Time now 2017-Apr-29 03:37 UTC.
Position N 55°56' W 004°55'.
Warning: this ship's position is 21 days out of date.

Length 59.4 m; beam 9.9 m; draft 4.5 m.

Type: Sailing vessel. MMSI: 232007330.

Date/timePositionNaut miles runAvg speedWind from/ knotsBaromVisibWave heightAir tempDewpointWater temp
2017-Apr-07 11:25N 55°56' W 004°55'14 1.5
2017-Apr-07 02:00N 55°42' W 005°00'6 0.5 270 / 101027.8 5.4 8.7 6.1
2017-Apr-06 14:11N 55°37' W 005°04'3 4.4
2017-Apr-06 13:30N 55°34' W 005°04'2 0.3
2017-Apr-06 06:26N 55°32' W 005°06'0 1.0
2017-Apr-06 06:00N 55°32' W 005°06'3 2.7
2017-Apr-06 04:59N 55°31' W 005°01'3 2.8
2017-Apr-06 04:02N 55°34' W 005°01'0 4.1
2017-Apr-06 03:58N 55°34' W 005°01'2 4.0
2017-Apr-06 03:30N 55°32' W 005°01'2 3.7
2017-Apr-06 03:00N 55°30' W 005°01'1 3.0
2017-Apr-06 02:30N 55°29' W 004°59'1 2.2
2017-Apr-06 02:00N 55°30' W 004°57'5 3.2
2017-Apr-06 00:35N 55°34' W 005°00'0 4.0
2017-Apr-06 00:31N 55°34' W 005°00'2 3.9
2017-Apr-06 00:00N 55°32' W 005°00'2 3.8
2017-Apr-05 23:30N 55°30' W 004°60'2 3.5
2017-Apr-05 23:01N 55°28' W 005°00'2 3.8
2017-Apr-05 22:26N 55°26' W 005°00'  
2017-Mar-31 02:00N 55°54' W 004°54'   100 / 51002.8 5.4 11.2 9.6 8.7

Dump ship's entire track history